createdAt,value
2023-07-10T00:00:21.236Z,19.36
2023-07-10T00:00:54.245Z,19.48
2023-07-10T00:01:27.277Z,19.45
2023-07-10T00:01:59.362Z,19.26
2023-07-10T00:02:30.956Z,19.53
2023-07-10T00:03:02.566Z,19.40
2023-07-10T00:03:34.343Z,19.58
2023-07-10T00:04:15.695Z,19.69
2023-07-10T00:04:47.239Z,19.69
2023-07-10T00:05:20.647Z,19.71
2023-07-10T00:05:52.365Z,19.72
2023-07-10T00:06:24.388Z,19.79
2023-07-10T00:06:56.134Z,19.70
2023-07-10T00:07:27.716Z,19.66
2023-07-10T00:07:59.302Z,19.70
2023-07-10T00:08:30.842Z,19.62
2023-07-10T00:09:02.462Z,19.69
2023-07-10T00:09:34.016Z,19.71
2023-07-10T00:10:06.085Z,19.79
2023-07-10T00:10:37.961Z,19.53
2023-07-10T00:11:31.720Z,19.62
2023-07-10T00:12:04.190Z,19.67
2023-07-10T00:12:36.599Z,19.69
2023-07-10T00:13:11.422Z,19.63
2023-07-10T00:13:43.066Z,19.71
2023-07-10T00:14:23.908Z,19.66
2023-07-10T00:14:55.431Z,19.48
2023-07-10T00:15:27.458Z,19.59
2023-07-10T00:15:59.550Z,19.64
2023-07-10T00:16:31.206Z,19.67
2023-07-10T00:17:02.948Z,19.66
2023-07-10T00:17:34.632Z,19.75
2023-07-10T00:18:16.530Z,19.75
2023-07-10T00:18:48.866Z,19.77
2023-07-10T00:19:23.654Z,19.67
2023-07-10T00:19:56.124Z,19.62
2023-07-10T00:20:28.804Z,19.78
2023-07-10T00:21:00.425Z,19.40
2023-07-10T00:21:31.961Z,19.61
2023-07-10T00:22:03.679Z,19.77
2023-07-10T00:22:35.293Z,19.75
2023-07-10T00:23:06.874Z,19.78
2023-07-10T00:23:38.531Z,19.73
2023-07-10T00:24:10.147Z,19.72
2023-07-10T00:24:41.758Z,19.77
2023-07-10T00:25:19.871Z,19.79
2023-07-10T00:25:52.450Z,19.77
2023-07-10T00:26:26.491Z,19.70
2023-07-10T00:26:58.070Z,19.63
2023-07-10T00:27:30.834Z,19.75
2023-07-10T00:28:02.427Z,19.76
2023-07-10T00:28:34.174Z,19.81
2023-07-10T00:29:27.436Z,19.82
2023-07-10T00:29:58.974Z,19.72
2023-07-10T00:30:33.103Z,19.80
2023-07-10T00:31:04.807Z,19.83
2023-07-10T00:31:36.568Z,19.53
2023-07-10T00:32:12.956Z,19.70
2023-07-10T00:32:45.900Z,19.79
2023-07-10T00:33:20.596Z,19.76
2023-07-10T00:33:53.158Z,19.71
2023-07-10T00:34:26.713Z,19.79
2023-07-10T00:34:58.608Z,19.89
2023-07-10T00:35:30.170Z,19.94
2023-07-10T00:36:01.974Z,19.77
2023-07-10T00:36:36.480Z,19.67
2023-07-10T00:37:08.173Z,19.67
2023-07-10T00:37:39.785Z,19.33
2023-07-10T00:38:27.162Z,19.29
2023-07-10T00:39:10.861Z,19.29
2023-07-10T00:39:44.411Z,19.34
2023-07-10T00:40:22.213Z,19.45
2023-07-10T00:40:53.978Z,19.52
2023-07-10T00:41:27.597Z,19.65
2023-07-10T00:42:07.657Z,19.35
2023-07-10T00:42:39.484Z,19.09
2023-07-10T00:43:34.377Z,19.28
2023-07-10T00:44:07.186Z,19.24
2023-07-10T00:44:42.963Z,19.39
2023-07-10T00:45:16.329Z,19.36
2023-07-10T00:45:49.677Z,19.42
2023-07-10T00:46:21.240Z,19.51
2023-07-10T00:46:56.740Z,19.57
2023-07-10T00:47:36.053Z,19.33
2023-07-10T00:48:33.307Z,19.24
2023-07-10T00:49:14.095Z,19.30
2023-07-10T00:49:48.268Z,19.25
2023-07-10T00:50:43.333Z,18.88
2023-07-10T00:51:34.581Z,18.88
2023-07-10T00:52:25.894Z,18.97
2023-07-10T00:52:58.350Z,19.03
2023-07-10T00:53:40.197Z,19.24
2023-07-10T00:54:21.556Z,19.31
2023-07-10T00:54:55.020Z,19.45
2023-07-10T00:55:36.352Z,19.32
2023-07-10T00:56:15.072Z,19.37
2023-07-10T00:56:46.857Z,19.28
2023-07-10T00:57:34.459Z,19.14
2023-07-10T00:58:30.730Z,19.34
2023-07-10T00:59:23.472Z,18.92
2023-07-10T00:59:55.079Z,19.29
2023-07-10T01:00:28.358Z,19.40
2023-07-10T01:01:05.974Z,19.38
2023-07-10T01:02:12.958Z,19.43
2023-07-10T01:02:44.800Z,19.36
2023-07-10T01:03:16.502Z,19.59
2023-07-10T01:03:50.733Z,19.54
2023-07-10T01:04:23.736Z,19.61
2023-07-10T01:04:59.189Z,19.62
2023-07-10T01:05:33.000Z,19.36
2023-07-10T01:06:19.391Z,19.40
2023-07-10T01:06:53.923Z,19.51
2023-07-10T01:07:26.861Z,19.34
2023-07-10T01:07:59.999Z,19.53
2023-07-10T01:08:32.116Z,19.48
2023-07-10T01:09:06.410Z,19.57
2023-07-10T01:09:40.037Z,19.54
2023-07-10T01:10:11.874Z,19.60
2023-07-10T01:10:43.599Z,19.74
2023-07-10T01:11:17.505Z,19.74
2023-07-10T01:11:49.355Z,19.68
2023-07-10T01:12:21.783Z,19.63
2023-07-10T01:12:53.714Z,19.70
2023-07-10T01:13:25.351Z,19.81
2023-07-10T01:13:58.313Z,19.77
2023-07-10T01:14:35.439Z,19.71
2023-07-10T01:15:09.778Z,19.78
2023-07-10T01:15:41.520Z,19.78
2023-07-10T01:16:13.161Z,19.74
2023-07-10T01:16:44.837Z,19.61
2023-07-10T01:17:16.431Z,19.73
2023-07-10T01:17:48.645Z,19.61
2023-07-10T01:18:20.958Z,19.75
2023-07-10T01:18:53.197Z,19.61
2023-07-10T01:19:25.221Z,19.69
2023-07-10T01:20:01.239Z,19.44
2023-07-10T01:20:39.662Z,19.55
2023-07-10T01:21:25.726Z,19.57
2023-07-10T01:21:57.486Z,19.65
2023-07-10T01:22:29.968Z,19.69
2023-07-10T01:23:03.720Z,19.55
2023-07-10T01:23:35.553Z,19.67
2023-07-10T01:24:07.818Z,19.82
2023-07-10T01:24:39.568Z,19.82
2023-07-10T01:25:11.192Z,19.67
2023-07-10T01:25:57.630Z,19.68
2023-07-10T01:26:29.841Z,19.67
2023-07-10T01:27:03.013Z,19.66
2023-07-10T01:27:34.598Z,19.54
2023-07-10T01:28:10.848Z,19.61
2023-07-10T01:28:42.975Z,19.61
2023-07-10T01:29:26.693Z,19.73
2023-07-10T01:30:06.539Z,19.67
2023-07-10T01:30:40.442Z,19.72
2023-07-10T01:31:14.411Z,19.71
2023-07-10T01:31:47.022Z,19.66
2023-07-10T01:32:19.659Z,19.34
2023-07-10T01:32:53.205Z,19.52
2023-07-10T01:33:28.729Z,19.52
2023-07-10T01:34:03.426Z,19.55
2023-07-10T01:34:52.102Z,19.77
2023-07-10T01:35:24.932Z,19.64
2023-07-10T01:35:58.608Z,19.55
2023-07-10T01:36:34.647Z,19.61
2023-07-10T01:37:07.057Z,19.62
2023-07-10T01:37:38.629Z,19.78
2023-07-10T01:38:13.739Z,19.69
2023-07-10T01:39:15.066Z,19.67
2023-07-10T01:39:49.028Z,19.58
2023-07-10T01:40:26.330Z,19.53
2023-07-10T01:41:00.329Z,19.73
2023-07-10T01:41:40.947Z,19.59
2023-07-10T01:42:12.637Z,19.78
2023-07-10T01:42:44.320Z,19.84
2023-07-10T01:43:15.892Z,19.86
2023-07-10T01:43:47.502Z,19.93
2023-07-10T01:44:26.756Z,19.85
2023-07-10T01:44:58.344Z,19.93
2023-07-10T01:45:39.966Z,19.90
2023-07-10T01:46:23.151Z,19.94
2023-07-10T01:46:56.073Z,19.68
2023-07-10T01:47:27.916Z,19.85
2023-07-10T01:47:59.709Z,19.92
2023-07-10T01:48:31.656Z,19.92
2023-07-10T01:49:04.524Z,19.93
2023-07-10T01:49:39.954Z,19.88
2023-07-10T01:50:11.617Z,19.73
2023-07-10T01:50:43.769Z,19.70
2023-07-10T01:51:15.392Z,19.62
2023-07-10T01:51:47.383Z,19.46
2023-07-10T01:52:21.215Z,19.60
2023-07-10T01:52:54.531Z,19.66
2023-07-10T01:53:26.097Z,19.73
2023-07-10T01:54:02.101Z,19.68
2023-07-10T01:54:33.715Z,19.71
2023-07-10T01:55:05.718Z,19.72
2023-07-10T01:55:44.381Z,19.66
2023-07-10T01:56:19.008Z,19.68
2023-07-10T01:56:51.017Z,19.71
2023-07-10T01:57:24.727Z,19.57
2023-07-10T01:57:56.515Z,19.63
2023-07-10T01:58:28.087Z,19.64
2023-07-10T01:58:59.688Z,19.55
2023-07-10T01:59:31.651Z,19.59
2023-07-10T02:00:03.870Z,19.43
2023-07-10T02:00:43.910Z,19.54
2023-07-10T02:01:15.606Z,19.53
2023-07-10T02:01:47.602Z,19.53
2023-07-10T02:02:19.644Z,19.49
2023-07-10T02:02:51.351Z,19.42
2023-07-10T02:03:23.122Z,19.52
2023-07-10T02:03:55.142Z,19.35
2023-07-10T02:04:26.978Z,19.32
2023-07-10T02:05:01.255Z,19.35
2023-07-10T02:05:33.093Z,19.24
2023-07-10T02:06:05.671Z,19.31
2023-07-10T02:06:38.522Z,19.27
2023-07-10T02:07:10.129Z,19.22
2023-07-10T02:07:41.766Z,19.32
2023-07-10T02:08:13.297Z,19.26
2023-07-10T02:08:44.865Z,19.22
2023-07-10T02:09:16.826Z,19.33
2023-07-10T02:09:48.645Z,19.37
2023-07-10T02:10:24.283Z,19.42
2023-07-10T02:10:58.315Z,19.45
2023-07-10T02:11:32.185Z,19.39
2023-07-10T02:12:04.250Z,19.31
2023-07-10T02:12:35.955Z,19.23
2023-07-10T02:13:07.630Z,19.15
2023-07-10T02:13:39.182Z,19.32
2023-07-10T02:14:10.928Z,19.29
2023-07-10T02:14:42.625Z,19.34
2023-07-10T02:15:14.239Z,19.41
2023-07-10T02:15:46.390Z,19.28
2023-07-10T02:16:18.026Z,18.86
2023-07-10T02:16:50.215Z,19.01
2023-07-10T02:17:22.077Z,18.90
2023-07-10T02:17:54.420Z,18.80
2023-07-10T02:18:26.975Z,18.78
2023-07-10T02:18:58.624Z,18.86
2023-07-10T02:19:30.209Z,18.90
2023-07-10T02:20:01.858Z,19.02
2023-07-10T02:20:33.488Z,18.80
2023-07-10T02:21:05.390Z,18.93
2023-07-10T02:21:37.023Z,19.06
2023-07-10T02:22:08.834Z,19.01
2023-07-10T02:22:40.583Z,19.07
2023-07-10T02:23:12.140Z,18.97
2023-07-10T02:23:48.945Z,18.60
2023-07-10T02:24:20.641Z,18.73
2023-07-10T02:24:52.216Z,18.62
2023-07-10T02:25:23.818Z,18.63
2023-07-10T02:25:55.974Z,18.92
2023-07-10T02:26:29.944Z,18.88
2023-07-10T02:27:01.557Z,19.03
2023-07-10T02:27:33.871Z,19.18
2023-07-10T02:28:07.124Z,18.73
2023-07-10T02:28:38.809Z,19.11
2023-07-10T02:29:10.603Z,19.06
2023-07-10T02:29:42.418Z,19.11
2023-07-10T02:30:15.429Z,19.04
2023-07-10T02:30:47.217Z,19.07
2023-07-10T02:31:18.935Z,19.04
2023-07-10T02:31:52.011Z,19.03
2023-07-10T02:32:23.748Z,19.11
2023-07-10T02:32:55.376Z,19.19
2023-07-10T02:33:26.976Z,19.21
2023-07-10T02:33:58.521Z,19.13
2023-07-10T02:34:30.151Z,19.18
2023-07-10T02:35:01.780Z,19.23
2023-07-10T02:35:34.653Z,19.14
2023-07-10T02:36:07.518Z,19.29
2023-07-10T02:36:39.355Z,19.31
2023-07-10T02:37:11.002Z,19.33
2023-07-10T02:37:42.662Z,19.14
2023-07-10T02:38:14.224Z,18.78
2023-07-10T02:38:45.804Z,18.88
2023-07-10T02:39:17.348Z,19.04
2023-07-10T02:39:50.455Z,18.70
2023-07-10T02:40:22.068Z,18.60
2023-07-10T02:40:54.926Z,18.97
2023-07-10T02:41:26.546Z,19.13
2023-07-10T02:41:59.882Z,19.26
2023-07-10T02:42:31.553Z,19.14
2023-07-10T02:43:03.531Z,18.71
2023-07-10T02:43:35.411Z,19.12
2023-07-10T02:44:07.362Z,19.28
2023-07-10T02:44:38.981Z,19.18
2023-07-10T02:45:11.042Z,19.22
2023-07-10T02:45:42.684Z,19.31
2023-07-10T02:46:14.626Z,19.19
2023-07-10T02:46:46.242Z,19.13
2023-07-10T02:47:17.862Z,19.05
2023-07-10T02:47:49.528Z,19.07
2023-07-10T02:48:21.340Z,18.95
2023-07-10T02:48:52.995Z,19.02
2023-07-10T02:49:24.645Z,19.05
2023-07-10T02:49:56.189Z,19.00
2023-07-10T02:50:27.834Z,18.73
2023-07-10T02:50:59.401Z,18.64
2023-07-10T02:51:31.016Z,18.90
2023-07-10T02:52:02.756Z,18.86
2023-07-10T02:52:34.309Z,19.01
2023-07-10T02:53:06.159Z,19.11
2023-07-10T02:53:39.007Z,18.97
2023-07-10T02:54:14.359Z,18.79
2023-07-10T02:54:45.930Z,19.02
2023-07-10T02:55:20.294Z,19.21
2023-07-10T02:55:51.929Z,19.06
2023-07-10T02:56:23.520Z,19.04
2023-07-10T02:56:55.187Z,19.21
2023-07-10T02:57:26.832Z,19.26
2023-07-10T02:57:58.432Z,19.18
2023-07-10T02:58:30.208Z,19.22
2023-07-10T02:59:01.845Z,19.31
2023-07-10T02:59:33.445Z,19.27
2023-07-10T03:00:06.012Z,19.22
2023-07-10T03:00:37.864Z,19.13
2023-07-10T03:01:09.652Z,19.02
2023-07-10T03:01:41.429Z,19.14
2023-07-10T03:02:13.158Z,19.07
2023-07-10T03:02:44.992Z,18.91
2023-07-10T03:03:16.571Z,18.81
2023-07-10T03:03:48.208Z,18.92
2023-07-10T03:04:19.844Z,19.01
2023-07-10T03:04:51.479Z,19.27
2023-07-10T03:05:26.642Z,19.06
2023-07-10T03:06:03.158Z,19.03
2023-07-10T03:06:35.145Z,19.05
2023-07-10T03:07:06.768Z,18.99
2023-07-10T03:07:38.331Z,18.98
2023-07-10T03:08:10.132Z,18.77
2023-07-10T03:08:42.292Z,18.71
2023-07-10T03:09:13.893Z,18.77
2023-07-10T03:09:45.930Z,18.54
2023-07-10T03:10:18.153Z,18.32
2023-07-10T03:10:50.721Z,18.21
2023-07-10T03:11:23.635Z,18.59
2023-07-10T03:11:55.352Z,18.25
2023-07-10T03:12:27.389Z,18.21
2023-07-10T03:12:59.066Z,18.54
2023-07-10T03:13:31.021Z,18.48
2023-07-10T03:14:04.362Z,18.25
2023-07-10T03:14:36.099Z,18.09
2023-07-10T03:15:08.169Z,18.34
2023-07-10T03:15:40.798Z,18.26
2023-07-10T03:16:14.296Z,18.25
2023-07-10T03:16:46.009Z,18.51
2023-07-10T03:17:18.073Z,18.66
2023-07-10T03:17:49.709Z,18.88
2023-07-10T03:18:21.364Z,18.94
2023-07-10T03:18:53.019Z,18.69
2023-07-10T03:19:24.616Z,18.94
2023-07-10T03:19:56.289Z,18.94
2023-07-10T03:20:27.991Z,18.93
2023-07-10T03:20:59.700Z,18.84
2023-07-10T03:21:31.274Z,18.86
2023-07-10T03:22:02.918Z,18.90
2023-07-10T03:22:34.539Z,18.79
2023-07-10T03:23:06.159Z,18.65
2023-07-10T03:23:38.001Z,18.59
2023-07-10T03:24:10.116Z,18.75
2023-07-10T03:24:43.924Z,18.73
2023-07-10T03:25:15.487Z,18.72
2023-07-10T03:25:47.097Z,18.61
2023-07-10T03:26:19.012Z,18.68
2023-07-10T03:26:50.675Z,18.60
2023-07-10T03:27:23.486Z,18.64
2023-07-10T03:27:55.053Z,18.63
2023-07-10T03:28:26.813Z,18.50
2023-07-10T03:29:12.592Z,18.77
2023-07-10T03:29:44.186Z,18.89
2023-07-10T03:30:17.280Z,18.98
2023-07-10T03:30:49.142Z,18.98
2023-07-10T03:31:20.906Z,19.15
2023-07-10T03:31:52.626Z,18.98
2023-07-10T03:32:24.414Z,18.67
2023-07-10T03:32:56.064Z,18.32
2023-07-10T03:33:27.701Z,18.17
2023-07-10T03:33:59.311Z,18.10
2023-07-10T03:34:30.885Z,18.38
2023-07-10T03:35:02.518Z,18.58
2023-07-10T03:35:34.140Z,18.71
2023-07-10T03:36:08.588Z,18.66
2023-07-10T03:36:41.007Z,18.70
2023-07-10T03:37:12.675Z,18.70
2023-07-10T03:37:44.320Z,18.44
2023-07-10T03:38:17.138Z,18.39
2023-07-10T03:38:48.692Z,18.29
2023-07-10T03:39:20.261Z,18.60
2023-07-10T03:39:51.957Z,18.61
2023-07-10T03:40:23.574Z,18.43
2023-07-10T03:40:57.324Z,18.54
2023-07-10T03:41:29.221Z,18.48
2023-07-10T03:42:00.820Z,18.29
2023-07-10T03:42:32.441Z,18.58
2023-07-10T03:43:04.036Z,18.54
2023-07-10T03:43:35.617Z,18.33
2023-07-10T03:44:07.182Z,18.42
2023-07-10T03:44:38.946Z,18.48
2023-07-10T03:45:10.982Z,18.29
2023-07-10T03:45:42.916Z,18.07
2023-07-10T03:46:14.536Z,18.48
2023-07-10T03:46:46.199Z,18.44
2023-07-10T03:47:17.960Z,18.25
2023-07-10T03:47:49.551Z,18.08
2023-07-10T03:48:21.730Z,18.06
2023-07-10T03:48:53.382Z,18.21
2023-07-10T03:49:26.374Z,18.42
2023-07-10T03:49:57.968Z,18.29
2023-07-10T03:50:29.588Z,18.08
2023-07-10T03:51:01.201Z,18.50
2023-07-10T03:51:32.837Z,18.60
2023-07-10T03:52:05.503Z,18.48
2023-07-10T03:52:37.214Z,18.62
2023-07-10T03:53:08.871Z,18.82
2023-07-10T03:53:41.049Z,18.55
2023-07-10T03:54:12.664Z,18.12
2023-07-10T03:54:44.327Z,18.30
2023-07-10T03:55:15.865Z,18.02
2023-07-10T03:55:52.297Z,18.19
2023-07-10T03:56:23.892Z,18.42
2023-07-10T03:56:55.490Z,18.08
2023-07-10T03:57:27.854Z,17.87
2023-07-10T03:57:59.408Z,17.91
2023-07-10T03:58:33.209Z,18.15
2023-07-10T03:59:07.495Z,18.38
2023-07-10T03:59:39.143Z,18.32
2023-07-10T04:00:11.381Z,18.46
2023-07-10T04:00:45.913Z,18.42
2023-07-10T04:01:17.707Z,18.35
2023-07-10T04:01:49.349Z,18.35
2023-07-10T04:02:20.939Z,18.40
2023-07-10T04:02:52.655Z,18.38
2023-07-10T04:03:26.449Z,18.55
2023-07-10T04:03:58.128Z,18.59
2023-07-10T04:04:29.679Z,18.71
2023-07-10T04:05:01.241Z,18.52
2023-07-10T04:05:32.822Z,18.52
2023-07-10T04:06:05.840Z,18.63
2023-07-10T04:06:37.710Z,18.63
2023-07-10T04:07:09.391Z,18.67
2023-07-10T04:07:40.956Z,18.53
2023-07-10T04:08:12.585Z,18.48
2023-07-10T04:08:45.449Z,18.51
2023-07-10T04:09:17.117Z,18.61
2023-07-10T04:09:48.687Z,18.71
2023-07-10T04:10:20.237Z,18.68
2023-07-10T04:10:52.805Z,18.70
2023-07-10T04:11:25.303Z,18.73
2023-07-10T04:11:56.944Z,18.73
2023-07-10T04:12:28.729Z,18.66
2023-07-10T04:13:00.423Z,18.44
2023-07-10T04:13:32.077Z,18.66
2023-07-10T04:14:03.724Z,18.70
2023-07-10T04:14:38.266Z,18.80
2023-07-10T04:15:10.021Z,18.89
2023-07-10T04:15:41.611Z,18.66
2023-07-10T04:16:21.868Z,18.23
2023-07-10T04:16:53.855Z,18.41
2023-07-10T04:17:25.865Z,18.51
2023-07-10T04:17:57.484Z,18.73
2023-07-10T04:18:39.586Z,18.88
2023-07-10T04:19:11.231Z,18.75
2023-07-10T04:19:42.892Z,18.96
2023-07-10T04:20:14.550Z,18.95
2023-07-10T04:20:46.117Z,19.08
2023-07-10T04:21:18.905Z,19.06
2023-07-10T04:21:50.539Z,18.92
2023-07-10T04:22:22.140Z,19.09
2023-07-10T04:22:53.824Z,19.04
2023-07-10T04:23:25.719Z,18.98
2023-07-10T04:23:57.762Z,18.56
2023-07-10T04:24:29.333Z,18.54
2023-07-10T04:25:06.809Z,18.70
2023-07-10T04:25:39.059Z,18.79
2023-07-10T04:26:18.330Z,18.86
2023-07-10T04:26:50.163Z,18.80
2023-07-10T04:27:21.704Z,18.90
2023-07-10T04:27:53.245Z,18.99
2023-07-10T04:28:25.031Z,18.98
2023-07-10T04:29:05.539Z,18.83
2023-07-10T04:29:37.263Z,18.94
2023-07-10T04:30:09.248Z,18.99
2023-07-10T04:30:40.840Z,19.06
2023-07-10T04:31:12.468Z,19.18
2023-07-10T04:31:44.078Z,19.13
2023-07-10T04:32:15.713Z,19.09
2023-07-10T04:32:47.326Z,19.11
2023-07-10T04:33:19.725Z,18.94
2023-07-10T04:33:52.509Z,18.95
2023-07-10T04:34:24.344Z,18.88
2023-07-10T04:34:56.079Z,18.89
2023-07-10T04:35:27.612Z,19.05
2023-07-10T04:35:59.198Z,19.07
2023-07-10T04:36:30.954Z,19.02
2023-07-10T04:37:02.693Z,18.98
2023-07-10T04:37:34.317Z,19.07
2023-07-10T04:38:06.700Z,19.17
2023-07-10T04:38:38.361Z,19.22
2023-07-10T04:39:10.752Z,19.17
2023-07-10T04:39:44.092Z,19.11
2023-07-10T04:40:16.923Z,19.00
2023-07-10T04:40:59.062Z,18.79
2023-07-10T04:41:30.617Z,18.70
2023-07-10T04:42:02.182Z,18.34
2023-07-10T04:42:33.731Z,18.48
2023-07-10T04:43:05.793Z,18.34
2023-07-10T04:43:37.504Z,18.71
2023-07-10T04:44:09.126Z,18.63
2023-07-10T04:44:40.719Z,18.74
2023-07-10T04:45:14.459Z,18.79
2023-07-10T04:45:47.219Z,18.79
2023-07-10T04:46:19.819Z,18.72
2023-07-10T04:46:51.419Z,18.19
2023-07-10T04:47:23.062Z,18.10
2023-07-10T04:47:54.901Z,18.05
2023-07-10T04:48:26.738Z,18.03
2023-07-10T04:48:58.509Z,18.19
2023-07-10T04:49:30.064Z,17.99
2023-07-10T04:50:01.729Z,18.02
2023-07-10T04:50:33.304Z,18.19
2023-07-10T04:51:06.286Z,18.28
2023-07-10T04:51:37.847Z,18.33
2023-07-10T04:52:09.378Z,18.22
2023-07-10T04:52:41.218Z,18.41
2023-07-10T04:53:12.883Z,18.37
2023-07-10T04:53:45.097Z,18.33
2023-07-10T04:54:16.969Z,18.25
2023-07-10T04:54:48.930Z,18.63
2023-07-10T04:55:20.500Z,18.50
2023-07-10T04:55:53.646Z,18.54
2023-07-10T04:56:25.195Z,18.79
2023-07-10T04:56:56.771Z,18.94
2023-07-10T04:57:28.321Z,18.76
2023-07-10T04:57:59.849Z,18.89
2023-07-10T04:58:46.288Z,19.08
2023-07-10T04:59:17.830Z,19.14
2023-07-10T04:59:49.377Z,19.17
2023-07-10T05:00:20.974Z,18.97
2023-07-10T05:00:57.563Z,19.11
2023-07-10T05:01:31.130Z,19.11
2023-07-10T05:02:04.104Z,19.08
2023-07-10T05:02:35.926Z,19.19
2023-07-10T05:03:08.000Z,19.27
2023-07-10T05:03:39.803Z,19.17
2023-07-10T05:04:11.535Z,19.25
2023-07-10T05:04:43.122Z,19.20
2023-07-10T05:05:14.852Z,19.05
2023-07-10T05:06:12.480Z,18.99
2023-07-10T05:06:44.044Z,18.91
2023-07-10T05:07:15.649Z,19.07
2023-07-10T05:07:47.290Z,19.09
2023-07-10T05:08:18.831Z,19.19
2023-07-10T05:08:53.682Z,19.03
2023-07-10T05:09:26.141Z,18.88
2023-07-10T05:09:58.720Z,19.00
2023-07-10T05:10:51.579Z,19.07
2023-07-10T05:11:26.195Z,19.19
2023-07-10T05:11:57.793Z,19.14
2023-07-10T05:12:29.350Z,19.19
2023-07-10T05:13:00.879Z,19.17
2023-07-10T05:13:32.575Z,19.31
2023-07-10T05:14:04.153Z,19.34
2023-07-10T05:14:35.716Z,19.30
2023-07-10T05:15:08.072Z,19.38
2023-07-10T05:15:39.698Z,19.28
2023-07-10T05:16:11.489Z,19.35
2023-07-10T05:16:43.570Z,18.87
2023-07-10T05:17:15.228Z,19.15
2023-07-10T05:17:47.329Z,19.25
2023-07-10T05:18:19.056Z,19.24
2023-07-10T05:18:50.681Z,19.28
2023-07-10T05:19:25.408Z,19.37
2023-07-10T05:19:56.989Z,19.28
2023-07-10T05:20:29.398Z,19.37
2023-07-10T05:21:01.455Z,19.34
2023-07-10T05:21:33.082Z,19.23
2023-07-10T05:22:04.951Z,19.32
2023-07-10T05:22:37.514Z,19.28
2023-07-10T05:23:09.199Z,19.20
2023-07-10T05:23:40.983Z,19.38
2023-07-10T05:24:12.560Z,19.43
2023-07-10T05:24:44.320Z,19.36
2023-07-10T05:25:16.288Z,19.43
2023-07-10T05:25:56.121Z,19.45
2023-07-10T05:26:27.850Z,19.50
2023-07-10T05:26:59.449Z,19.50
2023-07-10T05:27:31.162Z,19.53
2023-07-10T05:28:02.755Z,19.51
2023-07-10T05:28:35.573Z,19.49
2023-07-10T05:29:07.267Z,19.44
2023-07-10T05:29:38.801Z,19.47
2023-07-10T05:30:10.620Z,19.49
2023-07-10T05:30:42.452Z,19.51
2023-07-10T05:31:14.642Z,19.60
2023-07-10T05:31:46.398Z,19.58
2023-07-10T05:32:18.507Z,19.56
2023-07-10T05:32:50.142Z,19.43
2023-07-10T05:33:22.328Z,19.37
2023-07-10T05:33:53.944Z,19.42
2023-07-10T05:34:27.293Z,19.34
2023-07-10T05:34:58.920Z,19.27
2023-07-10T05:35:30.637Z,19.23
2023-07-10T05:36:06.122Z,19.42
2023-07-10T05:36:38.047Z,19.40
2023-07-10T05:37:13.449Z,19.44
2023-07-10T05:37:45.043Z,19.48
2023-07-10T05:38:16.688Z,19.57
2023-07-10T05:38:49.519Z,19.42
2023-07-10T05:39:21.182Z,19.39
2023-07-10T05:39:53.021Z,19.43
2023-07-10T05:40:24.639Z,19.44
2023-07-10T05:40:56.433Z,19.55
2023-07-10T05:41:28.034Z,19.59
2023-07-10T05:42:00.457Z,19.66
2023-07-10T05:42:32.078Z,19.63
2023-07-10T05:43:03.631Z,19.62
2023-07-10T05:43:36.301Z,19.37
2023-07-10T05:44:07.859Z,19.24
2023-07-10T05:44:39.613Z,19.55
2023-07-10T05:45:11.388Z,19.60
2023-07-10T05:45:43.012Z,19.69
2023-07-10T05:46:14.847Z,19.67
2023-07-10T05:46:46.386Z,19.77
2023-07-10T05:47:18.034Z,19.84
2023-07-10T05:47:49.909Z,19.95
2023-07-10T05:48:22.122Z,20.07
2023-07-10T05:48:54.130Z,20.21
2023-07-10T05:49:25.879Z,20.16
2023-07-10T05:49:57.460Z,20.18
2023-07-10T05:50:29.047Z,20.04
2023-07-10T05:51:01.235Z,20.02
2023-07-10T05:51:32.923Z,20.09
2023-07-10T05:52:04.874Z,20.12
2023-07-10T05:52:36.448Z,20.32
2023-07-10T05:53:08.750Z,20.53
2023-07-10T05:53:40.329Z,20.59
2023-07-10T05:54:11.885Z,20.70
2023-07-10T05:54:43.419Z,20.73
2023-07-10T05:55:15.131Z,20.67
2023-07-10T05:55:49.501Z,20.58
2023-07-10T05:56:24.193Z,20.59
2023-07-10T05:56:55.779Z,20.63
2023-07-10T05:57:27.328Z,20.67
2023-07-10T05:57:58.921Z,20.65
2023-07-10T05:58:31.366Z,20.38
2023-07-10T05:59:03.042Z,20.46
2023-07-10T05:59:34.692Z,20.41
2023-07-10T06:00:06.971Z,20.38
2023-07-10T06:00:42.053Z,20.32
2023-07-10T06:01:14.711Z,20.16
2023-07-10T06:01:46.393Z,20.18
2023-07-10T06:02:18.118Z,20.17
2023-07-10T06:02:49.745Z,20.26
2023-07-10T06:03:21.535Z,20.18
2023-07-10T06:03:53.294Z,20.36
2023-07-10T06:04:25.774Z,20.17
2023-07-10T06:04:58.902Z,20.09
2023-07-10T06:05:30.441Z,20.18
2023-07-10T06:06:05.177Z,20.17
2023-07-10T06:06:37.140Z,20.32
2023-07-10T06:07:08.823Z,20.28
2023-07-10T06:07:40.369Z,20.26
2023-07-10T06:08:11.954Z,20.18
2023-07-10T06:08:44.067Z,20.20
2023-07-10T06:09:16.189Z,20.29
2023-07-10T06:09:47.750Z,20.43
2023-07-10T06:10:19.287Z,20.64
2023-07-10T06:10:50.952Z,20.56
2023-07-10T06:11:22.680Z,20.72
2023-07-10T06:11:54.329Z,20.67
2023-07-10T06:12:25.979Z,20.75
2023-07-10T06:12:57.623Z,20.89
2023-07-10T06:13:29.354Z,21.17
2023-07-10T06:14:01.075Z,21.35
2023-07-10T06:14:32.727Z,21.44
2023-07-10T06:15:04.687Z,21.78
2023-07-10T06:15:36.252Z,21.95
2023-07-10T06:16:10.330Z,22.30
2023-07-10T06:16:42.340Z,22.78
2023-07-10T06:17:13.927Z,22.80
2023-07-10T06:17:45.569Z,23.16
2023-07-10T06:18:18.215Z,23.33
2023-07-10T06:18:49.832Z,23.13
2023-07-10T06:19:22.587Z,22.90
2023-07-10T06:19:54.276Z,23.03
2023-07-10T06:20:26.189Z,23.56
2023-07-10T06:20:59.122Z,23.72
2023-07-10T06:21:31.547Z,24.02
2023-07-10T06:22:08.797Z,23.90
2023-07-10T06:22:41.552Z,23.90
2023-07-10T06:23:13.100Z,23.43
2023-07-10T06:23:44.671Z,23.48
2023-07-10T06:24:16.272Z,23.73
2023-07-10T06:24:47.805Z,24.15
2023-07-10T06:25:19.381Z,24.50
2023-07-10T06:25:51.872Z,24.84
2023-07-10T06:26:23.480Z,25.05
2023-07-10T06:26:55.066Z,24.85
2023-07-10T06:27:26.654Z,24.57
2023-07-10T06:27:58.415Z,25.28
2023-07-10T06:28:31.717Z,25.98
2023-07-10T06:29:03.263Z,26.02
2023-07-10T06:29:35.477Z,26.32
2023-07-10T06:30:07.796Z,26.71
2023-07-10T06:30:43.168Z,26.49
2023-07-10T06:31:14.780Z,25.78
2023-07-10T06:31:46.426Z,26.16
2023-07-10T06:32:18.344Z,26.52
2023-07-10T06:32:49.955Z,26.97
2023-07-10T06:33:21.637Z,27.46
2023-07-10T06:33:53.306Z,27.24
2023-07-10T06:34:24.897Z,26.92
2023-07-10T06:34:56.434Z,27.19
2023-07-10T06:35:27.975Z,27.14
2023-07-10T06:36:00.551Z,26.76
2023-07-10T06:36:32.132Z,27.08
2023-07-10T06:37:03.890Z,26.92
2023-07-10T06:37:35.437Z,26.60
2023-07-10T06:38:07.036Z,27.70
2023-07-10T06:38:39.106Z,28.29
2023-07-10T06:39:10.688Z,28.08
2023-07-10T06:39:42.340Z,27.98
2023-07-10T06:40:16.685Z,27.94
2023-07-10T06:40:49.473Z,28.56
2023-07-10T06:41:21.749Z,28.42
2023-07-10T06:41:54.296Z,28.78
2023-07-10T06:42:26.000Z,29.54
2023-07-10T06:42:57.575Z,29.75
2023-07-10T06:43:29.274Z,29.17
2023-07-10T06:44:00.932Z,28.73
2023-07-10T06:44:32.492Z,28.31
2023-07-10T06:45:05.667Z,28.23
2023-07-10T06:45:37.262Z,28.17
2023-07-10T06:46:09.313Z,27.89
2023-07-10T06:46:41.255Z,27.46
2023-07-10T06:47:12.824Z,27.36
2023-07-10T06:47:46.474Z,26.93
2023-07-10T06:48:18.448Z,27.36
2023-07-10T06:48:50.223Z,27.53
2023-07-10T06:49:22.121Z,27.39
2023-07-10T06:49:53.730Z,27.04
2023-07-10T06:50:25.396Z,27.16
2023-07-10T06:50:57.670Z,26.95
2023-07-10T06:51:30.654Z,26.79
2023-07-10T06:52:02.273Z,26.00
2023-07-10T06:52:34.543Z,25.72
2023-07-10T06:53:23.607Z,25.47
2023-07-10T06:53:57.731Z,25.20
2023-07-10T06:54:30.300Z,24.86
2023-07-10T06:55:02.064Z,24.66
2023-07-10T06:55:33.720Z,24.50
2023-07-10T06:56:06.673Z,24.58
2023-07-10T06:56:38.570Z,24.79
2023-07-10T06:57:10.189Z,24.61
2023-07-10T06:57:42.197Z,25.10
2023-07-10T06:58:13.763Z,25.44
2023-07-10T06:58:45.350Z,25.71
2023-07-10T06:59:22.645Z,24.70
2023-07-10T06:59:54.384Z,23.33
2023-07-10T07:00:25.992Z,23.43
2023-07-10T07:00:57.769Z,23.89
2023-07-10T07:01:29.457Z,24.54
2023-07-10T07:02:01.044Z,25.18
2023-07-10T07:02:32.900Z,24.29
2023-07-10T07:03:04.682Z,24.12
2023-07-10T07:03:36.506Z,24.45
2023-07-10T07:04:08.197Z,23.63
2023-07-10T07:04:41.048Z,24.27
2023-07-10T07:05:12.929Z,24.37
2023-07-10T07:05:45.404Z,24.44
2023-07-10T07:06:17.239Z,24.25